sensor_id;sensor_type;location;lat;lon;timestamp;pressure;altitude;pressure_sealevel;temperature;humidity
70437;BME280;57877;39.750;-104.894;2022-07-23T00:01:45;83677.29;;;33.74;10.23
70437;BME280;57877;39.750;-104.894;2022-07-23T00:04:11;83675.78;;;34.00;10.12
70437;BME280;57877;39.750;-104.894;2022-07-23T00:06:37;83671.78;;;34.46;10.17
70437;BME280;57877;39.750;-104.894;2022-07-23T00:09:03;83666.92;;;34.90;10.06
70437;BME280;57877;39.750;-104.894;2022-07-23T00:11:29;83666.81;;;34.87;10.30
70437;BME280;57877;39.750;-104.894;2022-07-23T00:13:54;83676.18;;;34.16;10.50
70437;BME280;57877;39.750;-104.894;2022-07-23T00:16:19;83676.27;;;34.34;10.41
70437;BME280;57877;39.750;-104.894;2022-07-23T00:18:44;83676.56;;;33.20;10.70
70437;BME280;57877;39.750;-104.894;2022-07-23T00:21:09;83685.92;;;33.81;10.85
70437;BME280;57877;39.750;-104.894;2022-07-23T00:23:34;83692.78;;;34.04;10.63
70437;BME280;57877;39.750;-104.894;2022-07-23T00:25:59;83694.67;;;33.68;10.80
70437;BME280;57877;39.750;-104.894;2022-07-23T00:28:24;83698.56;;;33.03;10.97
70437;BME280;57877;39.750;-104.894;2022-07-23T00:30:50;83704.74;;;32.90;11.09
70437;BME280;57877;39.750;-104.894;2022-07-23T00:33:16;83711.75;;;32.86;11.46
70437;BME280;57877;39.750;-104.894;2022-07-23T00:35:41;83711.07;;;32.30;12.11
70437;BME280;57877;39.750;-104.894;2022-07-23T00:38:07;83713.09;;;32.85;11.87
70437;BME280;57877;39.750;-104.894;2022-07-23T00:40:31;83719.03;;;32.86;11.79
70437;BME280;57877;39.750;-104.894;2022-07-23T00:42:56;83717.49;;;33.16;11.90
70437;BME280;57877;39.750;-104.894;2022-07-23T00:45:21;83719.96;;;32.96;11.60
70437;BME280;57877;39.750;-104.894;2022-07-23T00:47:46;83722.57;;;33.73;11.55
70437;BME280;57877;39.750;-104.894;2022-07-23T00:50:12;83722.44;;;32.92;11.80
70437;BME280;57877;39.750;-104.894;2022-07-23T00:52:38;83723.96;;;33.72;11.47
70437;BME280;57877;39.750;-104.894;2022-07-23T00:55:02;83726.22;;;33.22;11.54
70437;BME280;57877;39.750;-104.894;2022-07-23T00:57:27;83722.92;;;33.77;11.36
70437;BME280;57877;39.750;-104.894;2022-07-23T00:59:52;83722.69;;;33.72;11.16
70437;BME280;57877;39.750;-104.894;2022-07-23T01:02:17;83722.26;;;33.29;11.32
70437;BME280;57877;39.750;-104.894;2022-07-23T01:04:43;83715.65;;;33.36;11.18
70437;BME280;57877;39.750;-104.894;2022-07-23T01:07:08;83709.44;;;33.98;11.24
70437;BME280;57877;39.750;-104.894;2022-07-23T01:09:33;83705.93;;;33.97;11.06
70437;BME280;57877;39.750;-104.894;2022-07-23T01:11:59;83700.20;;;34.23;11.26
70437;BME280;57877;39.750;-104.894;2022-07-23T01:14:23;83693.76;;;34.61;10.96
70437;BME280;57877;39.750;-104.894;2022-07-23T01:16:49;83688.92;;;34.71;10.84
70437;BME280;57877;39.750;-104.894;2022-07-23T01:19:14;83689.35;;;34.29;10.96
70437;BME280;57877;39.750;-104.894;2022-07-23T01:21:39;83687.53;;;34.55;11.15
70437;BME280;57877;39.750;-104.894;2022-07-23T01:24:03;83688.11;;;34.48;11.96
70437;BME280;57877;39.750;-104.894;2022-07-23T01:26:28;83687.94;;;34.59;11.01
70437;BME280;57877;39.750;-104.894;2022-07-23T01:28:53;83684.88;;;34.55;11.00
70437;BME280;57877;39.750;-104.894;2022-07-23T01:31:18;83687.59;;;34.28;11.40
70437;BME280;57877;39.750;-104.894;2022-07-23T01:33:43;83684.21;;;34.38;11.24
70437;BME280;57877;39.750;-104.894;2022-07-23T01:36:09;83682.84;;;34.78;11.25
70437;BME280;57877;39.750;-104.894;2022-07-23T01:38:33;83679.61;;;34.55;11.08
70437;BME280;57877;39.750;-104.894;2022-07-23T01:40:58;83679.63;;;34.68;11.59
70437;BME280;57877;39.750;-104.894;2022-07-23T01:43:23;83677.90;;;34.59;11.57
70437;BME280;57877;39.750;-104.894;2022-07-23T01:45:49;83677.21;;;34.29;11.41
70437;BME280;57877;39.750;-104.894;2022-07-23T01:48:14;83675.83;;;34.60;11.48
70437;BME280;57877;39.750;-104.894;2022-07-23T01:50:39;83673.07;;;34.53;11.39
70437;BME280;57877;39.750;-104.894;2022-07-23T01:53:04;83672.93;;;34.09;11.44
70437;BME280;57877;39.750;-104.894;2022-07-23T01:55:29;83672.09;;;34.14;11.64
70437;BME280;57877;39.750;-104.894;2022-07-23T01:57:54;83670.02;;;33.94;11.52
70437;BME280;57877;39.750;-104.894;2022-07-23T02:00:19;83665.73;;;33.50;11.81
70437;BME280;57877;39.750;-104.894;2022-07-23T02:02:44;83664.35;;;33.77;11.94
70437;BME280;57877;39.750;-104.894;2022-07-23T02:05:09;83662.59;;;33.84;12.15
70437;BME280;57877;39.750;-104.894;2022-07-23T02:07:34;83661.09;;;33.58;12.24
70437;BME280;57877;39.750;-104.894;2022-07-23T02:09:59;83661.16;;;33.27;12.40
70437;BME280;57877;39.750;-104.894;2022-07-23T02:12:25;83659.08;;;33.34;12.60
70437;BME280;57877;39.750;-104.894;2022-07-23T02:14:49;83662.07;;;33.21;12.60
70437;BME280;57877;39.750;-104.894;2022-07-23T02:17:14;83662.79;;;33.31;12.72
70437;BME280;57877;39.750;-104.894;2022-07-23T02:19:39;83663.95;;;33.24;12.84
70437;BME280;57877;39.750;-104.894;2022-07-23T02:22:05;83663.89;;;32.63;12.83
70437;BME280;57877;39.750;-104.894;2022-07-23T02:24:30;83658.33;;;32.86;13.15
70437;BME280;57877;39.750;-104.894;2022-07-23T02:26:55;83657.90;;;32.72;13.08
70437;BME280;57877;39.750;-104.894;2022-07-23T02:29:20;83654.10;;;32.05;13.42
70437;BME280;57877;39.750;-104.894;2022-07-23T02:31:45;83653.05;;;32.47;13.30
70437;BME280;57877;39.750;-104.894;2022-07-23T02:34:10;83651.19;;;32.06;13.66
70437;BME280;57877;39.750;-104.894;2022-07-23T02:36:35;83653.18;;;31.68;13.85
70437;BME280;57877;39.750;-104.894;2022-07-23T02:39:00;83651.97;;;32.19;13.79
70437;BME280;57877;39.750;-104.894;2022-07-23T02:41:25;83651.16;;;31.72;13.96
70437;BME280;57877;39.750;-104.894;2022-07-23T02:43:50;83650.27;;;31.64;13.96
70437;BME280;57877;39.750;-104.894;2022-07-23T02:46:15;83648.48;;;31.47;14.14
70437;BME280;57877;39.750;-104.894;2022-07-23T02:48:40;83649.74;;;31.41;14.08
70437;BME280;57877;39.750;-104.894;2022-07-23T02:51:05;83647.81;;;31.77;14.09
70437;BME280;57877;39.750;-104.894;2022-07-23T02:53:30;83648.99;;;31.61;14.09
70437;BME280;57877;39.750;-104.894;2022-07-23T02:55:55;83652.33;;;31.57;14.47
70437;BME280;57877;39.750;-104.894;2022-07-23T02:58:20;83655.17;;;31.37;14.43
70437;BME280;57877;39.750;-104.894;2022-07-23T03:00:46;83654.77;;;31.61;14.27
70437;BME280;57877;39.750;-104.894;2022-07-23T03:03:10;83654.84;;;31.35;14.28
70437;BME280;57877;39.750;-104.894;2022-07-23T03:05:35;83653.70;;;31.37;14.38
70437;BME280;57877;39.750;-104.894;2022-07-23T03:08:01;83652.56;;;31.39;14.37
70437;BME280;57877;39.750;-104.894;2022-07-23T03:10:27;83650.08;;;31.27;14.31
70437;BME280;57877;39.750;-104.894;2022-07-23T03:12:53;83650.12;;;31.02;14.29
70437;BME280;57877;39.750;-104.894;2022-07-23T03:15:19;83655.34;;;30.94;14.33
70437;BME280;57877;39.750;-104.894;2022-07-23T03:17:45;83655.62;;;30.88;14.55
70437;BME280;57877;39.750;-104.894;2022-07-23T03:20:11;83658.72;;;30.76;14.39
70437;BME280;57877;39.750;-104.894;2022-07-23T03:22:40;83661.54;;;30.84;14.53
70437;BME280;57877;39.750;-104.894;2022-07-23T03:25:10;83662.70;;;30.53;14.52
70437;BME280;57877;39.750;-104.894;2022-07-23T03:27:31;83666.15;;;30.45;14.64
70437;BME280;57877;39.750;-104.894;2022-07-23T03:29:58;83666.77;;;30.47;14.69
70437;BME280;57877;39.750;-104.894;2022-07-23T03:32:22;83668.64;;;30.58;14.66
70437;BME280;57877;39.750;-104.894;2022-07-23T03:34:48;83672.98;;;30.77;14.46
70437;BME280;57877;39.750;-104.894;2022-07-23T03:37:13;83676.67;;;30.33;15.07
70437;BME280;57877;39.750;-104.894;2022-07-23T03:39:37;83679.69;;;30.13;15.58
70437;BME280;57877;39.750;-104.894;2022-07-23T03:42:04;83681.64;;;29.96;15.78
70437;BME280;57877;39.750;-104.894;2022-07-23T03:44:29;83683.77;;;29.97;16.18
70437;BME280;57877;39.750;-104.894;2022-07-23T03:46:54;83687.78;;;30.05;16.40
70437;BME280;57877;39.750;-104.894;2022-07-23T03:49:19;83688.74;;;30.01;16.60
70437;BME280;57877;39.750;-104.894;2022-07-23T03:51:45;83691.80;;;29.99;16.29
70437;BME280;57877;39.750;-104.894;2022-07-23T03:54:11;83695.17;;;30.04;16.12
70437;BME280;57877;39.750;-104.894;2022-07-23T03:56:37;83695.28;;;29.89;16.14
70437;BME280;57877;39.750;-104.894;2022-07-23T03:59:03;83696.82;;;29.94;16.04
70437;BME280;57877;39.750;-104.894;2022-07-23T04:01:28;83696.51;;;30.37;16.08
70437;BME280;57877;39.750;-104.894;2022-07-23T04:03:53;83696.93;;;29.66;16.31
70437;BME280;57877;39.750;-104.894;2022-07-23T04:06:18;83700.47;;;29.12;16.74
70437;BME280;57877;39.750;-104.894;2022-07-23T04:08:43;83703.47;;;29.23;16.73
70437;BME280;57877;39.750;-104.894;2022-07-23T04:11:08;83703.78;;;29.72;16.67
70437;BME280;57877;39.750;-104.894;2022-07-23T04:13:33;83702.20;;;29.69;16.71
70437;BME280;57877;39.750;-104.894;2022-07-23T04:15:59;83699.78;;;29.37;17.13
70437;BME280;57877;39.750;-104.894;2022-07-23T04:18:23;83709.21;;;28.73;17.74
70437;BME280;57877;39.750;-104.894;2022-07-23T04:20:48;83708.88;;;29.11;17.84
70437;BME280;57877;39.750;-104.894;2022-07-23T04:23:13;83706.70;;;28.31;18.41
70437;BME280;57877;39.750;-104.894;2022-07-23T04:25:38;83707.51;;;28.18;18.75
70437;BME280;57877;39.750;-104.894;2022-07-23T04:28:04;83708.83;;;27.87;19.15
70437;BME280;57877;39.750;-104.894;2022-07-23T04:30:30;83707.47;;;27.90;19.14
70437;BME280;57877;39.750;-104.894;2022-07-23T04:32:56;83707.99;;;28.05;19.02
70437;BME280;57877;39.750;-104.894;2022-07-23T04:35:21;83706.26;;;27.80;18.97
70437;BME280;57877;39.750;-104.894;2022-07-23T04:37:46;83703.04;;;27.91;19.03
70437;BME280;57877;39.750;-104.894;2022-07-23T04:40:13;83696.94;;;27.82;19.02
70437;BME280;57877;39.750;-104.894;2022-07-23T04:42:38;83688.03;;;27.93;18.69
70437;BME280;57877;39.750;-104.894;2022-07-23T04:45:05;83687.90;;;28.14;18.57
70437;BME280;57877;39.750;-104.894;2022-07-23T04:47:30;83685.51;;;28.00;18.69
70437;BME280;57877;39.750;-104.894;2022-07-23T04:49:56;83685.19;;;28.20;18.70
70437;BME280;57877;39.750;-104.894;2022-07-23T04:52:22;83681.17;;;28.13;18.63
70437;BME280;57877;39.750;-104.894;2022-07-23T04:54:48;83680.22;;;28.03;18.71
70437;BME280;57877;39.750;-104.894;2022-07-23T04:57:14;83681.61;;;28.22;19.15
70437;BME280;57877;39.750;-104.894;2022-07-23T04:59:40;83680.00;;;28.10;18.70
70437;BME280;57877;39.750;-104.894;2022-07-23T05:02:06;83680.85;;;28.06;18.46
70437;BME280;57877;39.750;-104.894;2022-07-23T05:04:32;83677.90;;;28.19;18.63
70437;BME280;57877;39.750;-104.894;2022-07-23T05:06:58;83680.55;;;28.34;18.72
70437;BME280;57877;39.750;-104.894;2022-07-23T05:09:24;83682.89;;;28.26;18.96
70437;BME280;57877;39.750;-104.894;2022-07-23T05:11:50;83684.51;;;28.07;18.88
70437;BME280;57877;39.750;-104.894;2022-07-23T05:14:16;83685.96;;;27.89;18.96
70437;BME280;57877;39.750;-104.894;2022-07-23T05:16:42;83689.51;;;27.73;18.70
70437;BME280;57877;39.750;-104.894;2022-07-23T05:19:08;83688.88;;;27.17;18.95
70437;BME280;57877;39.750;-104.894;2022-07-23T05:21:35;83686.24;;;27.46;18.47
70437;BME280;57877;39.750;-104.894;2022-07-23T05:24:00;83684.64;;;27.30;18.57
70437;BME280;57877;39.750;-104.894;2022-07-23T05:26:26;83683.75;;;26.90;18.75
70437;BME280;57877;39.750;-104.894;2022-07-23T05:28:52;83681.21;;;27.06;18.56
70437;BME280;57877;39.750;-104.894;2022-07-23T05:31:18;83681.51;;;27.07;18.45
70437;BME280;57877;39.750;-104.894;2022-07-23T05:33:44;83679.99;;;27.43;18.48
70437;BME280;57877;39.750;-104.894;2022-07-23T05:36:10;83678.49;;;27.37;18.42
70437;BME280;57877;39.750;-104.894;2022-07-23T05:38:37;83679.02;;;27.51;18.70
70437;BME280;57877;39.750;-104.894;2022-07-23T05:41:02;83676.04;;;27.62;19.66
70437;BME280;57877;39.750;-104.894;2022-07-23T05:43:29;83672.06;;;27.30;18.90
70437;BME280;57877;39.750;-104.894;2022-07-23T05:45:54;83667.82;;;27.17;19.23
70437;BME280;57877;39.750;-104.894;2022-07-23T05:48:20;83666.25;;;27.38;18.90
70437;BME280;57877;39.750;-104.894;2022-07-23T05:50:47;83664.20;;;27.22;18.91
70437;BME280;57877;39.750;-104.894;2022-07-23T05:53:12;83663.64;;;27.27;18.90
70437;BME280;57877;39.750;-104.894;2022-07-23T05:55:38;83663.18;;;27.56;19.39
70437;BME280;57877;39.750;-104.894;2022-07-23T05:58:04;83664.48;;;27.56;20.07
70437;BME280;57877;39.750;-104.894;2022-07-23T06:00:31;83663.56;;;27.40;19.21
70437;BME280;57877;39.750;-104.894;2022-07-23T06:02:56;83665.07;;;27.33;19.39
70437;BME280;57877;39.750;-104.894;2022-07-23T06:05:22;83664.63;;;26.96;19.76
70437;BME280;57877;39.750;-104.894;2022-07-23T06:07:48;83665.30;;;27.11;20.38
70437;BME280;57877;39.750;-104.894;2022-07-23T06:10:14;83660.62;;;27.27;19.86
70437;BME280;57877;39.750;-104.894;2022-07-23T06:12:39;83659.44;;;26.65;19.94
70437;BME280;57877;39.750;-104.894;2022-07-23T06:15:05;83657.39;;;26.94;19.53
70437;BME280;57877;39.750;-104.894;2022-07-23T06:17:30;83656.38;;;26.51;19.89
70437;BME280;57877;39.750;-104.894;2022-07-23T06:19:56;83659.19;;;26.77;19.68
70437;BME280;57877;39.750;-104.894;2022-07-23T06:22:22;83658.72;;;26.45;19.91
70437;BME280;57877;39.750;-104.894;2022-07-23T06:24:47;83655.28;;;26.24;20.09
70437;BME280;57877;39.750;-104.894;2022-07-23T06:27:13;83656.24;;;25.81;20.59
70437;BME280;57877;39.750;-104.894;2022-07-23T06:29:39;83655.71;;;25.87;20.92
70437;BME280;57877;39.750;-104.894;2022-07-23T06:32:05;83655.05;;;26.16;20.96
70437;BME280;57877;39.750;-104.894;2022-07-23T06:34:31;83650.12;;;25.96;20.72
70437;BME280;57877;39.750;-104.894;2022-07-23T06:36:57;83649.99;;;26.21;20.88
70437;BME280;57877;39.750;-104.894;2022-07-23T06:39:23;83652.03;;;25.77;21.05
70437;BME280;57877;39.750;-104.894;2022-07-23T06:41:49;83649.13;;;26.01;20.90
70437;BME280;57877;39.750;-104.894;2022-07-23T06:44:15;83649.60;;;25.59;21.40
70437;BME280;57877;39.750;-104.894;2022-07-23T06:46:41;83654.24;;;25.45;21.30
70437;BME280;57877;39.750;-104.894;2022-07-23T06:49:07;83656.14;;;25.52;21.26
70437;BME280;57877;39.750;-104.894;2022-07-23T06:51:33;83658.01;;;25.58;21.21
70437;BME280;57877;39.750;-104.894;2022-07-23T06:53:59;83659.49;;;25.35;21.45
70437;BME280;57877;39.750;-104.894;2022-07-23T06:56:25;83660.75;;;26.03;21.48
70437;BME280;57877;39.750;-104.894;2022-07-23T06:58:51;83659.51;;;25.31;21.41
70437;BME280;57877;39.750;-104.894;2022-07-23T07:01:17;83658.28;;;25.54;21.16
70437;BME280;57877;39.750;-104.894;2022-07-23T07:03:43;83659.50;;;25.75;21.30
70437;BME280;57877;39.750;-104.894;2022-07-23T07:06:09;83662.53;;;25.65;21.24
70437;BME280;57877;39.750;-104.894;2022-07-23T07:08:35;83660.21;;;25.10;21.43
70437;BME280;57877;39.750;-104.894;2022-07-23T07:11:01;83653.57;;;25.71;21.48
70437;BME280;57877;39.750;-104.894;2022-07-23T07:13:27;83650.78;;;25.41;21.62
70437;BME280;57877;39.750;-104.894;2022-07-23T07:15:53;83648.16;;;25.57;21.50
70437;BME280;57877;39.750;-104.894;2022-07-23T07:18:19;83648.50;;;25.38;21.88
70437;BME280;57877;39.750;-104.894;2022-07-23T07:20:45;83649.87;;;25.16;21.51
70437;BME280;57877;39.750;-104.894;2022-07-23T07:23:12;83655.01;;;25.10;21.70
70437;BME280;57877;39.750;-104.894;2022-07-23T07:25:37;83652.87;;;25.08;21.75
70437;BME280;57877;39.750;-104.894;2022-07-23T07:28:03;83650.94;;;24.81;21.87
70437;BME280;57877;39.750;-104.894;2022-07-23T07:30:29;83648.33;;;25.13;21.55
70437;BME280;57877;39.750;-104.894;2022-07-23T07:32:55;83648.46;;;24.94;21.63
70437;BME280;57877;39.750;-104.894;2022-07-23T07:35:21;83644.08;;;24.94;21.37
70437;BME280;57877;39.750;-104.894;2022-07-23T07:37:47;83638.74;;;25.22;21.08
70437;BME280;57877;39.750;-104.894;2022-07-23T07:40:13;83629.38;;;25.03;20.99
70437;BME280;57877;39.750;-104.894;2022-07-23T07:42:44;83623.28;;;25.11;21.07
70437;BME280;57877;39.750;-104.894;2022-07-23T07:45:05;83623.34;;;25.12;21.12
70437;BME280;57877;39.750;-104.894;2022-07-23T07:47:30;83619.07;;;24.85;21.09
70437;BME280;57877;39.750;-104.894;2022-07-23T07:49:56;83616.54;;;24.82;21.20
70437;BME280;57877;39.750;-104.894;2022-07-23T07:52:22;83615.53;;;24.78;21.64
70437;BME280;57877;39.750;-104.894;2022-07-23T07:54:48;83613.75;;;24.62;21.93
70437;BME280;57877;39.750;-104.894;2022-07-23T07:57:14;83614.39;;;24.54;21.98
70437;BME280;57877;39.750;-104.894;2022-07-23T07:59:40;83612.59;;;24.66;21.94
70437;BME280;57877;39.750;-104.894;2022-07-23T08:02:06;83610.91;;;24.63;21.76
70437;BME280;57877;39.750;-104.894;2022-07-23T08:04:32;83611.06;;;24.36;21.99
70437;BME280;57877;39.750;-104.894;2022-07-23T08:06:58;83609.09;;;24.63;21.94
70437;BME280;57877;39.750;-104.894;2022-07-23T08:09:24;83605.06;;;24.82;21.24
70437;BME280;57877;39.750;-104.894;2022-07-23T08:11:50;83605.00;;;24.62;21.38
70437;BME280;57877;39.750;-104.894;2022-07-23T08:14:16;83603.62;;;24.66;21.38
70437;BME280;57877;39.750;-104.894;2022-07-23T08:16:42;83603.14;;;24.62;21.18
70437;BME280;57877;39.750;-104.894;2022-07-23T08:19:08;83601.91;;;24.74;21.09
70437;BME280;57877;39.750;-104.894;2022-07-23T08:21:34;83601.30;;;24.54;21.28
70437;BME280;57877;39.750;-104.894;2022-07-23T08:24:00;83600.14;;;24.83;20.75
70437;BME280;57877;39.750;-104.894;2022-07-23T08:26:26;83603.04;;;25.10;20.70
70437;BME280;57877;39.750;-104.894;2022-07-23T08:28:52;83606.63;;;24.91;20.94
70437;BME280;57877;39.750;-104.894;2022-07-23T08:31:18;83605.55;;;25.02;20.86
70437;BME280;57877;39.750;-104.894;2022-07-23T08:33:44;83606.67;;;25.16;20.94
70437;BME280;57877;39.750;-104.894;2022-07-23T08:36:10;83611.45;;;24.84;21.03
70437;BME280;57877;39.750;-104.894;2022-07-23T08:38:36;83615.01;;;25.09;21.28
70437;BME280;57877;39.750;-104.894;2022-07-23T08:41:02;83619.85;;;24.80;21.11
70437;BME280;57877;39.750;-104.894;2022-07-23T08:43:29;83615.20;;;25.24;20.73
70437;BME280;57877;39.750;-104.894;2022-07-23T08:45:56;83612.52;;;25.05;20.61
70437;BME280;57877;39.750;-104.894;2022-07-23T08:48:21;83609.98;;;25.16;20.40
70437;BME280;57877;39.750;-104.894;2022-07-23T08:50:48;83611.87;;;25.11;20.54
70437;BME280;57877;39.750;-104.894;2022-07-23T08:53:11;83615.11;;;25.40;20.36
70437;BME280;57877;39.750;-104.894;2022-07-23T08:55:37;83616.33;;;25.51;20.26
70437;BME280;57877;39.750;-104.894;2022-07-23T08:58:03;83617.09;;;25.25;20.34
70437;BME280;57877;39.750;-104.894;2022-07-23T09:00:29;83614.83;;;25.13;20.25
70437;BME280;57877;39.750;-104.894;2022-07-23T09:02:55;83616.14;;;25.10;20.47
70437;BME280;57877;39.750;-104.894;2022-07-23T09:05:21;83615.50;;;25.23;20.55
70437;BME280;57877;39.750;-104.894;2022-07-23T09:10:13;83622.23;;;25.45;20.15
70437;BME280;57877;39.750;-104.894;2022-07-23T09:12:39;83625.82;;;25.40;20.22
70437;BME280;57877;39.750;-104.894;2022-07-23T09:15:07;83622.48;;;25.70;20.13
70437;BME280;57877;39.750;-104.894;2022-07-23T09:17:37;83619.51;;;24.99;20.44
70437;BME280;57877;39.750;-104.894;2022-07-23T09:22:24;83619.50;;;25.27;20.38
70437;BME280;57877;39.750;-104.894;2022-07-23T09:27:15;83620.42;;;25.18;20.64
70437;BME280;57877;39.750;-104.894;2022-07-23T09:32:13;83617.85;;;24.73;20.98
70437;BME280;57877;39.750;-104.894;2022-07-23T09:34:34;83619.75;;;25.01;21.12
70437;BME280;57877;39.750;-104.894;2022-07-23T09:37:09;83621.66;;;24.77;21.23
70437;BME280;57877;39.750;-104.894;2022-07-23T09:39:28;83620.30;;;24.75;21.23
70437;BME280;57877;39.750;-104.894;2022-07-23T09:41:51;83618.62;;;24.53;21.04
70437;BME280;57877;39.750;-104.894;2022-07-23T09:44:19;83615.38;;;24.52;21.14
70437;BME280;57877;39.750;-104.894;2022-07-23T09:46:42;83615.15;;;24.58;21.25
70437;BME280;57877;39.750;-104.894;2022-07-23T09:49:14;83611.69;;;25.05;20.98
70437;BME280;57877;39.750;-104.894;2022-07-23T09:51:43;83612.35;;;24.84;21.39
70437;BME280;57877;39.750;-104.894;2022-07-23T09:54:00;83610.49;;;24.73;21.54
70437;BME280;57877;39.750;-104.894;2022-07-23T09:56:28;83609.48;;;24.45;21.84
70437;BME280;57877;39.750;-104.894;2022-07-23T09:58:52;83610.74;;;24.30;22.17
70437;BME280;57877;39.750;-104.894;2022-07-23T10:01:18;83607.42;;;24.07;22.40
70437;BME280;57877;39.750;-104.894;2022-07-23T10:03:45;83610.02;;;24.14;22.54
70437;BME280;57877;39.750;-104.894;2022-07-23T10:06:10;83609.27;;;24.22;22.64
70437;BME280;57877;39.750;-104.894;2022-07-23T10:08:36;83608.77;;;24.07;22.63
70437;BME280;57877;39.750;-104.894;2022-07-23T10:11:02;83607.27;;;24.28;22.55
70437;BME280;57877;39.750;-104.894;2022-07-23T10:13:29;83606.45;;;23.95;22.75
70437;BME280;57877;39.750;-104.894;2022-07-23T10:15:54;83603.43;;;23.82;22.79
70437;BME280;57877;39.750;-104.894;2022-07-23T10:18:20;83601.83;;;23.99;22.64
70437;BME280;57877;39.750;-104.894;2022-07-23T10:20:47;83602.66;;;24.30;22.14
70437;BME280;57877;39.750;-104.894;2022-07-23T10:23:16;83602.47;;;24.19;22.30
70437;BME280;57877;39.750;-104.894;2022-07-23T10:25:42;83599.99;;;24.16;21.96
70437;BME280;57877;39.750;-104.894;2022-07-23T10:28:16;83599.31;;;24.45;21.78
70437;BME280;57877;39.750;-104.894;2022-07-23T10:30:35;83599.63;;;24.42;21.58
70437;BME280;57877;39.750;-104.894;2022-07-23T10:33:09;83596.29;;;24.34;21.69
70437;BME280;57877;39.750;-104.894;2022-07-23T10:35:29;83589.85;;;24.36;21.63
70437;BME280;57877;39.750;-104.894;2022-07-23T10:37:50;83591.81;;;24.37;22.05
70437;BME280;57877;39.750;-104.894;2022-07-23T10:40:16;83590.03;;;24.53;22.00
70437;BME280;57877;39.750;-104.894;2022-07-23T10:42:40;83594.44;;;24.68;22.20
70437;BME280;57877;39.750;-104.894;2022-07-23T10:47:32;83591.56;;;24.82;21.66
70437;BME280;57877;39.750;-104.894;2022-07-23T10:52:25;83591.62;;;24.74;21.68
70437;BME280;57877;39.750;-104.894;2022-07-23T10:54:52;83589.43;;;24.87;21.70
70437;BME280;57877;39.750;-104.894;2022-07-23T10:57:16;83588.43;;;24.83;21.68
70437;BME280;57877;39.750;-104.894;2022-07-23T11:07:06;83600.04;;;24.49;22.42
70437;BME280;57877;39.750;-104.894;2022-07-23T11:09:25;83600.40;;;24.52;22.80
70437;BME280;57877;39.750;-104.894;2022-07-23T11:16:47;83595.75;;;23.84;22.77
70437;BME280;57877;39.750;-104.894;2022-07-23T11:19:08;83595.66;;;24.27;22.76
70437;BME280;57877;39.750;-104.894;2022-07-23T11:24:03;83595.99;;;24.42;22.49
70437;BME280;57877;39.750;-104.894;2022-07-23T11:28:52;83596.38;;;24.30;22.26
70437;BME280;57877;39.750;-104.894;2022-07-23T11:31:18;83595.02;;;24.34;22.15
70437;BME280;57877;39.750;-104.894;2022-07-23T11:33:44;83595.38;;;24.21;22.07
70437;BME280;57877;39.750;-104.894;2022-07-23T11:36:10;83591.33;;;24.42;21.84
70437;BME280;57877;39.750;-104.894;2022-07-23T11:38:37;83595.71;;;24.25;21.78
70437;BME280;57877;39.750;-104.894;2022-07-23T11:41:02;83598.18;;;24.21;21.79
70437;BME280;57877;39.750;-104.894;2022-07-23T11:43:27;83603.59;;;24.46;21.93
70437;BME280;57877;39.750;-104.894;2022-07-23T11:45:57;83601.16;;;24.12;21.44
70437;BME280;57877;39.750;-104.894;2022-07-23T11:48:22;83602.79;;;24.68;21.30
70437;BME280;57877;39.750;-104.894;2022-07-23T11:50:45;83602.00;;;24.59;21.01
70437;BME280;57877;39.750;-104.894;2022-07-23T11:53:12;83602.35;;;24.78;20.87
70437;BME280;57877;39.750;-104.894;2022-07-23T11:55:37;83605.81;;;24.87;20.79
70437;BME280;57877;39.750;-104.894;2022-07-23T11:58:03;83604.42;;;25.05;20.68
70437;BME280;57877;39.750;-104.894;2022-07-23T12:00:30;83603.82;;;24.92;20.56
70437;BME280;57877;39.750;-104.894;2022-07-23T12:02:58;83609.67;;;25.36;20.39
70437;BME280;57877;39.750;-104.894;2022-07-23T12:05:23;83609.33;;;25.33;20.51
70437;BME280;57877;39.750;-104.894;2022-07-23T12:07:48;83611.59;;;25.26;20.74
70437;BME280;57877;39.750;-104.894;2022-07-23T12:10:16;83613.53;;;25.64;20.19
70437;BME280;57877;39.750;-104.894;2022-07-23T12:12:40;83615.90;;;25.14;20.34
70437;BME280;57877;39.750;-104.894;2022-07-23T12:15:07;83617.72;;;25.82;19.90
70437;BME280;57877;39.750;-104.894;2022-07-23T12:17:33;83616.89;;;25.24;19.96
70437;BME280;57877;39.750;-104.894;2022-07-23T12:19:57;83620.63;;;25.81;19.76
70437;BME280;57877;39.750;-104.894;2022-07-23T12:22:23;83622.66;;;25.89;19.61
70437;BME280;57877;39.750;-104.894;2022-07-23T12:24:53;83623.08;;;26.16;19.78
70437;BME280;57877;39.750;-104.894;2022-07-23T12:27:14;83625.13;;;25.61;19.73
70437;BME280;57877;39.750;-104.894;2022-07-23T12:29:41;83628.53;;;25.61;20.12
70437;BME280;57877;39.750;-104.894;2022-07-23T12:34:33;83633.76;;;25.54;20.25
70437;BME280;57877;39.750;-104.894;2022-07-23T12:36:59;83639.40;;;25.48;20.20
70437;BME280;57877;39.750;-104.894;2022-07-23T12:39:30;83641.99;;;25.99;20.17
70437;BME280;57877;39.750;-104.894;2022-07-23T12:41:52;83647.07;;;25.69;20.07
70437;BME280;57877;39.750;-104.894;2022-07-23T12:44:16;83651.36;;;25.88;20.10
70437;BME280;57877;39.750;-104.894;2022-07-23T12:46:42;83652.29;;;25.96;20.11
70437;BME280;57877;39.750;-104.894;2022-07-23T12:49:08;83659.30;;;26.10;20.02
70437;BME280;57877;39.750;-104.894;2022-07-23T12:51:39;83657.58;;;25.85;19.91
70437;BME280;57877;39.750;-104.894;2022-07-23T12:54:06;83658.01;;;25.92;23.12
70437;BME280;57877;39.750;-104.894;2022-07-23T12:56:30;83659.31;;;26.41;19.93